White Mountain Summit Weather observations

Data are for 10 minute period ending at time listed.
 Day   Time   Solar   Ave.   Ave.  Ave.  Vector    Max.    Baro.  
  of    of     Rad.   Air    Rel.  Wind   Wind     Wind   Press.  
Year   Day            Temp.  Hum.  Speed  Dir.     Gust           
2014   (PST)   W/m2    F      %     mph   deg.      mph     mb.   
-------------------------------------------------------------------
 296    3:40    0.0    27   39.3    57    268.9    61.2   999.0 
 296    3:50    0.0    27   39.7    54    269.9    61.2   999.0 
 296    4:00    0.0    27   39.6    55    270.8    61.2   999.0 
 296    4:10    0.0    27   40.0    55    270.8    61.2   999.0 
 296    4:20    0.0    27   38.7    55    270.8    61.2   999.0 
 296    4:30    0.0    27   37.0    51    269.2    61.2   999.0 
 296    4:40    0.0    27   39.5    48    266.9    54.1   999.0 
 296    4:50    0.0    27   36.8    53    267.2    61.2   999.0 
 296    5:00    0.0    27   35.8    50    266.7    58.8   999.0 
 296    5:10    0.0    27   37.8    49    266.4    54.1   999.0 
 296    5:20    0.0    27   36.9    53    267.0    58.8   999.0 
 296    5:30    0.0    27   36.4    49    268.3    58.8   999.0 
 296    5:40    0.0    27   36.5    47    267.1    56.5   999.0 
 296    5:50    0.0    27   37.0    50    265.9    61.2   999.0 
 296    6:00    0.0    27   37.7    54    266.1    63.5   999.0 
 296    6:10    0.0    27   37.9    56    267.5    65.9   999.0 
 296    6:20    0.0    27   37.6    58    265.5    68.2   999.0 
 296    6:30    0.0    27   37.8    57    267.3    65.9   999.0 
 296    6:40    0.0    27   37.7    52    266.5    61.2   999.0 
 296    6:50    0.0    27   38.0    49    267.7    56.5   999.0 
 296    7:00    0.0    28   36.5    61    267.3    72.9   999.0 
 296    7:10    0.0    28   36.4    64    267.7    70.6   999.0 
 296    7:20    0.0    28   36.2    61    267.0    70.6   999.0 
 296    7:30    0.0    28   36.7    61    267.3    70.6   999.0 
 296    7:40    0.0    28   36.7    63    268.3    70.6   999.0 
 296    7:50    0.0    28   35.9    70    268.4    80.0   999.0 
 296    8:00    0.0    28   35.0    72    269.1    77.7   999.0 
 296    8:10    0.0    28   35.2    73    269.4    82.4   999.0 
 296    8:20    0.0    29   35.1    73    268.8    82.4   999.0 
 296    8:30    0.0    29   35.0    76    269.0    84.7   999.0 
 296    8:40    0.0    29   35.3    72    268.8    82.4   999.0 
 296    8:50    0.0    29   35.7    70    270.0    80.0   999.0 
 296    9:00    0.0    29   35.7    70    269.4    77.7   999.0 
 296    9:10    0.0    29   35.8    69    269.1    75.3   999.0 
 296    9:20    0.0    29   36.0    70    268.9    80.0   999.0 
 296    9:30    0.0    29   35.8    69    269.0    77.7   999.0 
 296    9:40    0.0    29   35.6    64    268.6    72.9   999.0 
 296    9:50    0.0    30   35.6    65    269.6    72.9   999.0 
 296   10:00    0.0    30   35.6    58    266.0    70.6   999.0 
 296   10:10    0.0    31   34.4    62    267.7    75.3   999.0 
 296   10:20    0.0    32   33.8    58    266.3    68.2   999.0 
 296   10:30    0.0    32   32.8    53    266.6    68.2   999.0 
 296   10:40    0.0    33   32.9    54    267.4    68.2   999.0 
 296   10:50    0.0    33   32.5    56    268.1    68.2   999.0 
 296   11:00    0.0    34   31.8    54    269.1    63.5   999.0 
 296   11:10    0.0    34   31.8    56    267.4    65.9   999.0 
 296   11:20    0.0    34   31.2    58    267.4    70.6   999.0 
 296   11:30    0.0    35   30.4    63    267.3    75.3   999.0 
 296   11:40    0.0    36   29.8    60    265.4    72.9   999.0 
 296   11:50    0.0    36   29.7    59    267.9    70.6   999.0 
 296   12:00    0.0    36   29.7    60    267.1    72.9   999.0 
 296   12:10    0.0    36   29.3    64    267.2    77.7   999.0 
 296   12:20    0.0    36   29.8    63    267.6    80.0   999.0 
 296   12:30    0.0    36   29.3    63    266.4    77.7   999.0 
 296   12:40    0.0    37   28.9    66    266.6    80.0   999.0 
 296   12:50    0.0    37   28.9    65    265.6    80.0   999.0 
 296   13:00    0.0    37   28.7    62    266.6    75.3   999.0 
 296   13:10    0.0    37   28.9    59    266.6    72.9   999.0 
 296   13:20    0.0    38   28.2    58    267.4    72.9   999.0 
 296   13:30    0.0    38   28.6    60    266.6    75.3   999.0 
 296   13:40    0.0    37   29.0    60    266.1    80.0   999.0 
 296   13:50    0.0    37   29.1    61    266.6    77.7   999.0 
 296   14:00    0.0    36   29.9    58    267.7    72.9   999.0 
 296   14:10    0.0    36   30.0    59    268.6    70.6   999.0 
 296   14:20    0.0    36   30.2    57    267.0    65.9   999.0 
 296   14:30    0.0    35   30.8    54    267.1    63.5   999.0 
 296   14:40    0.0    35   31.1    54    266.9    65.9   999.0 
 296   14:50    0.0    34   31.9    54    268.8    63.5   999.0 
 296   15:00    0.0    34   32.7    55    268.1    68.2   999.0 
 296   15:10    0.0    34   33.1    56    268.8    72.9   999.0 
 296   15:20    0.0    33   33.6    56    268.6    65.9   999.0 
 296   15:30    0.0    33   33.5    54    268.6    65.9   999.0 
 296   15:40    0.0    33   33.8    49    269.1    63.5   999.0 
 296   15:50    0.0    33   34.0    46    267.5    54.1   999.0 
 296   16:00    0.0    33   34.3    44    268.4    51.8   999.0 
 296   16:10    0.0    32   35.1    49    266.9    58.8   999.0 
 296   16:20    0.0    34   34.1    48    266.2    58.8   999.0 
 296   16:30    0.0    34   33.6    44    268.6    51.8   999.0 
 296   16:40    0.0    34   34.2    42    266.7    49.4   999.0 
 296   16:50    0.0    34   34.2    42    267.2    49.4   999.0 
 296   17:00    0.0    33   35.0    43    268.2    49.4   999.0 
 296   17:10    0.0    32   35.9    44    268.5    51.8   999.0 
 296   17:20    0.0    32   36.9    42    267.0    49.4   999.0 
 296   17:30    0.0    31   36.9    42    264.6    49.4   999.0 
 296   17:40    0.0    31   37.5    44    265.3    51.8   999.0 
 296   17:50    0.0    31   37.5    46    264.9    56.5   999.0 
 296   18:00    0.0    30   37.3    45    264.5    54.1   999.0 
 296   18:10    0.0    30   37.2    45    266.1    54.1   999.0 
 296   18:20    0.0    30   37.2    46    261.7    51.8   999.0 
 296   18:30    0.0    30   37.6    47    260.5    54.1   999.0 
 296   18:40    0.0    30   37.5    49    261.5    56.5   999.0 
 296   18:50    0.0    30   37.5    53    259.5    61.2   999.0 
 296   19:00    0.0    30   36.4    55    259.0    63.5   999.0 
 296   19:10    0.0    30   36.3    56    259.3    63.5   999.0 
 296   19:20    0.0    30   35.3    57    260.9    63.5   999.0 
 296   19:30    0.0    30   34.7    60    256.7    65.9   999.0 
 296   19:40    0.0    31   33.4    58    258.6    68.2   999.0 
 296   19:50    0.0    31   32.3    57    256.8    68.2   999.0 
 296   20:00    0.0    30   33.2    54    259.2    63.5   999.0 
 296   20:10    0.0    31   32.6    56    257.6    65.9   999.0 
 296   20:20    0.0    31   31.8    58    258.0    68.2   999.0 
 296   20:30    0.0    31   31.6    60    259.9    70.6   999.0 
 296   20:40    0.0    30   32.0    58    256.9    68.2   999.0 
 296   20:50    0.0    30   33.1    58    259.7    68.2   999.0 
 296   21:00    0.0    30   32.2    56    263.0    61.2   999.0 
 296   21:10    0.0    30   34.8    50    258.3    58.8   999.0 
 296   21:20    0.0    29   38.3    49    255.8    56.5   999.0 
 296   21:30    0.0    29   39.2    48    255.4    51.8   999.0 
 296   21:40    0.0    29   40.0    49    254.9    54.1   999.0 
 296   21:50    0.0    29   41.1    51    256.0    54.1   999.0 
 296   22:00    0.0    29   40.5    52    254.9    56.5   999.0 
 296   22:10    0.0    28   40.4    53    258.0    58.8   999.0 
 296   22:20    0.0    28   39.9    55    258.9    61.2   999.0 
 296   22:30    0.0    29   38.5    58    257.3    65.9   999.0 
 296   22:40    0.0    29   37.6    59    258.0    65.9   999.0 
 296   22:50    0.0    28   38.5    56    259.9    63.5   999.0 
 296   23:00    0.0    28   38.0    63    270.2    70.6   999.0 
 296   23:10    0.0    28   36.8    64    271.2    72.9   999.0 
 296   23:20    0.0    29   36.2    63    271.1    72.9   999.0 
 296   23:30    0.0    28   37.3    62    271.0    70.6   999.0 
 296   23:40    0.0    28   39.8    56    267.0    65.9   999.0 
 296   23:50    0.0    28   41.2    55    265.8    63.5   999.0 
 297    0:00    0.0    28   40.8    57    268.6    65.9   999.0 
 297    0:10    0.0    28   41.0    54    261.5    63.5   999.0 
 297    0:20    0.0    28   40.4    56    254.8    61.2   999.0 
 297    0:30    0.0    28   40.9    55    256.4    61.2   999.0 
 297    0:40    0.0    27   41.7    57    261.0    63.5   999.0 
 297    0:50    0.0    27   42.2    60    264.6    68.2   999.0 
 297    1:00    0.0    27   41.2    65    270.4    70.6   999.0 
 297    1:10    0.0    28   39.9    67    272.3    75.3   999.0 
 297    1:20    0.0    27   41.3    68    272.4    75.3   999.0 
 297    1:30    0.0    27   42.0    64    270.7    70.6   999.0 
 297    1:40    0.0    27   43.0    58    264.2    68.2   999.0 
 297    1:50    0.0    27   43.3    60    263.6    72.9   999.0 
 297    2:00    0.0    27   43.6    64    267.0    72.9   999.0 
 297    2:10    0.0    27   43.2    66    270.0    72.9   999.0 
 297    2:20    0.0    26   43.9    59    263.5    68.2   999.0 
 297    2:30    0.0    26   44.0    61    265.5    70.6   999.0 
 297    2:40    0.0    27   42.5    62    266.8    75.3   999.0 
 297    2:50    0.0    27   42.5    60    266.4    77.7   999.0 
 297    3:00    0.0    26   44.6    56    257.8    63.5   999.0 
 297    3:10    0.0    26   44.4    56    261.1    68.2   999.0 
 297    3:20    0.0    26   44.2    56    261.1    65.9   999.0 
 297    3:30    0.0    26   44.7    58    257.1    65.9   999.0 

Return to White Mountain graphs page.


Western Regional Climate Center,wrcc@dri.edu